ORD weather

Chicago O'Hare International Airport
Chicago, Illinois, United States

Public forecast

Using degrees Fahrenheit for public forecast. Weather courtesy of forecast.io.

METAR (pilot weather report)

Retrieved 2018/04/25 03:51 UTC (35 minutes ago):

KORD 250351Z 03009KT 10SM FEW250 09/07 A3001 RMK AO2 SLP163 T00890067

TAF (pilot weather forecast)

Forecast is more than 12 hours old.

Retrieved 2018/04/24 00:24 UTC (1 day ago):

TAF KORD 242321Z 2500/2606 04010KT P6SM FEW100 SCT250 FM250500 01015G25KT P6SM SCT015 BKN050 BKN100 FM251100 02013G21KT P6SM FEW040 SCT250 FM252100 03012KT P6SM FEW250